Date,TemperatureHighF,TemperatureAvgF,TemperatureLowF,DewpointHighF,DewpointAvgF,DewpointLowF,HumidityHigh,HumidityAvg,HumidityLow,PressureMaxIn,PressureMinIn,WindSpeedMaxMPH,WindSpeedAvgMPH,GustSpeedMaxMPH,PrecipitationSumIn
2014-1-1,90.0,82.7,76.5,76.5,74.2,72.6,89,77,59,29.80,29.67,9,4,14,0.00
2014-1-2,91.0,82.3,75.1,78.0,75.1,73.3,95,80,62,29.78,29.67,9,3,14,0.00
2014-1-3,90.0,82.2,73.8,79.7,76.4,72.6,97,84,68,29.82,29.69,6,2,11,0.00
2014-1-4,88.7,81.4,75.8,79.9,77.5,74.6,97,88,73,29.81,29.66,7,2,10,0.76
2014-1-5,90.1,82.2,75.7,79.1,76.2,73.7,96,83,62,29.75,29.54,5,2,7,0.01
2014-1-6,90.2,79.9,77.0,78.5,68.4,-99.9,93,76,63,29.66,29.54,8,-44,11,0.00
2014-1-7,91.0,79.1,75.0,78.6,68.7,-99.9,97,78,62,29.68,29.54,6,-40,9,0.01
2014-1-8,91.5,82.7,74.6,77.1,74.8,72.8,96,79,57,29.71,29.54,7,2,12,0.00
2014-1-9,89.9,81.8,74.2,78.2,74.7,72.5,96,80,61,29.68,29.54,6,2,9,0.00
2014-1-10,87.9,82.8,76.0,76.3,74.6,73.1,94,77,65,29.69,29.59,11,5,24,0.00
2014-1-11,89.7,81.6,76.2,76.9,74.3,72.3,92,79,57,29.74,29.60,9,3,15,0.00
2014-1-12,91.3,82.5,74.9,77.5,75.0,72.7,94,79,57,29.75,29.61,6,2,11,0.00
2014-1-13,91.1,82.3,74.8,77.9,75.1,73.4,96,80,59,29.74,29.56,7,2,12,0.00
2014-1-14,84.5,76.5,75.3,76.4,67.0,-99.9,95,80,73,29.85,29.73,9,-40,16,0.00
2014-1-15,88.2,81.0,75.8,75.1,73.3,72.1,89,78,63,29.85,29.73,9,3,14,0.00
2014-1-16,88.6,86.1,81.9,74.7,72.8,71.7,73,65,60,29.84,29.73,9,6,16,0.00
2014-1-17,89.4,81.0,74.9,73.9,71.9,70.6,90,75,56,29.86,29.71,9,4,16,0.00
2014-1-18,89.0,80.9,73.2,71.6,69.7,66.8,90,70,51,29.87,29.74,10,5,15,0.00
2014-1-19,89.1,81.2,74.5,73.4,70.6,68.3,83,71,51,29.91,29.74,9,4,15,0.00
2014-1-20,88.3,79.2,69.6,70.8,69.1,67.2,92,73,53,29.91,29.75,8,3,14,0.00
2014-1-21,88.1,78.6,70.0,72.2,68.8,66.9,93,74,50,29.90,29.75,9,2,14,0.00
2014-1-22,88.3,79.7,70.0,71.7,69.5,67.0,93,72,57,29.87,29.73,10,4,18,0.00
2014-1-23,87.3,78.2,68.7,70.4,68.2,66.2,92,73,55,29.89,29.74,10,3,20,0.00
2014-1-24,87.8,78.7,69.3,74.2,69.9,67.1,93,76,56,29.84,29.67,7,2,12,0.00
2014-1-25,88.8,80.2,73.1,75.4,71.9,69.7,90,77,59,29.78,29.64,7,2,12,0.00
2014-1-26,91.8,82.2,74.2,74.7,72.5,67.3,94,74,46,29.83,29.66,8,2,12,0.00
2014-1-27,91.2,81.8,73.6,70.2,67.8,62.8,85,65,40,29.82,29.67,9,4,13,0.00
2014-1-28,91.3,81.3,73.1,72.3,69.7,67.3,87,70,46,29.82,29.65,9,4,18,0.00
2014-1-29,91.4,82.2,75.4,73.6,70.9,69.4,85,70,50,29.82,29.67,11,4,18,0.00
2014-1-30,91.2,81.8,74.2,72.7,69.9,65.7,89,69,44,29.86,29.69,11,4,16,0.00
2014-1-31,91.3,81.6,73.8,73.2,69.5,66.3,87,69,45,29.86,29.70,11,4,16,0.00
2014-2-1,91.9,81.2,73.1,70.9,67.2,59.5,86,65,35,29.83,29.66,9,2,11,0.00
2014-2-2,91.0,79.8,68.6,74.0,67.5,61.8,94,69,39,29.80,29.63,8,2,11,0.00
2014-2-3,89.4,79.1,67.5,69.6,66.5,61.0,93,68,39,29.74,29.60,7,2,11,0.00
2014-2-4,88.3,78.9,69.2,76.9,72.3,67.7,96,81,53,29.72,29.55,9,3,12,0.00
2014-2-5,92.4,80.6,72.6,77.0,73.3,68.6,96,80,46,29.84,29.67,7,2,12,0.01
2014-2-6,90.4,81.8,74.1,77.5,74.1,71.6,93,79,60,29.85,29.69,7,2,11,0.00
2014-2-7,90.2,81.8,75.8,76.8,74.5,72.9,92,80,58,29.85,29.69,7,2,8,0.00
2014-2-8,90.3,82.2,74.5,78.1,74.9,72.4,94,80,59,29.83,29.70,8,2,12,0.00
2014-2-9,91.0,82.3,73.9,77.6,74.8,72.1,96,80,56,29.84,29.72,9,2,12,0.00
2014-2-10,90.0,81.5,72.8,77.5,73.7,70.4,95,79,54,29.85,29.73,8,2,11,0.00
2014-2-11,89.2,80.2,72.0,75.8,73.1,68.5,97,80,51,29.86,29.73,9,3,14,0.01
2014-2-12,90.0,81.1,72.0,77.3,73.3,70.5,96,79,55,29.84,29.74,9,2,12,0.00
2014-2-13,94.6,84.4,76.8,78.2,74.2,69.2,91,73,44,29.91,29.76,9,3,13,0.00
2014-2-14,93.7,84.3,77.6,75.2,72.2,68.3,82,69,48,29.94,29.77,10,4,16,0.00
2014-2-15,93.9,84.4,76.7,74.1,72.0,69.7,85,68,46,29.91,29.76,11,5,16,0.00
2014-2-16,94.0,84.5,77.1,76.2,73.4,71.5,86,71,50,29.92,29.80,10,4,19,0.00
2014-2-17,95.5,85.3,77.7,74.4,72.3,70.7,84,67,46,29.96,29.81,10,4,17,0.00
2014-2-18,94.6,88.2,80.6,77.1,74.4,71.7,77,64,48,29.98,29.81,8,4,13,0.00
2014-2-19,92.8,83.2,74.8,77.4,74.3,71.5,95,76,51,29.93,29.78,8,2,11,0.00
2014-2-20,94.9,84.3,74.5,74.9,72.5,68.7,93,70,44,29.94,29.80,9,4,16,0.00
2014-2-21,94.2,85.0,77.0,74.9,72.2,67.6,87,68,43,29.99,29.84,9,4,18,0.00
2014-2-22,94.6,84.6,76.2,73.1,71.6,70.5,83,67,48,29.97,29.83,10,4,19,0.00
2014-2-23,92.9,81.5,75.4,75.3,73.0,69.9,91,77,48,30.00,29.82,9,3,18,0.00
2014-2-24,94.6,84.7,76.4,74.0,71.3,65.5,86,67,39,30.00,29.83,9,4,14,0.00
2014-2-25,88.8,86.6,83.8,75.2,73.7,72.4,70,66,62,29.87,29.83,3,1,5,0.00
2014-2-26,95.1,84.0,74.2,72.6,69.2,62.4,90,65,37,29.97,29.79,8,3,15,0.00
2014-2-27,95.9,84.8,76.5,73.4,68.2,62.5,75,60,34,29.99,29.82,10,4,15,0.00
2014-2-28,96.0,83.6,72.4,72.3,68.7,63.9,86,64,36,29.96,29.79,10,4,18,0.00
2014-3-1,96.5,82.9,70.6,73.3,68.3,61.6,91,65,33,29.94,29.77,9,3,13,0.00
2014-3-2,94.5,82.2,70.9,74.6,68.6,62.5,88,65,37,29.94,29.78,8,2,11,0.00
2014-3-3,93.3,82.6,72.9,77.9,72.5,69.8,94,73,50,29.92,29.79,6,2,10,0.00
2014-3-4,90.8,83.0,75.7,78.0,75.2,72.8,94,78,59,29.97,29.82,8,2,12,0.00
2014-3-5,92.5,89.1,85.5,77.3,76.1,74.0,75,66,59,29.85,29.81,6,3,11,0.00
2014-3-6,92.0,80.1,74.4,73.4,72.3,70.3,92,78,50,29.95,29.86,9,3,16,0.00
2014-3-7,85.6,82.5,78.7,71.3,70.5,68.6,77,67,57,29.93,29.88,3,1,6,0.00
2014-3-8,95.1,83.5,72.6,76.8,71.0,67.0,93,69,40,29.99,29.82,8,2,13,0.00
2014-3-9,97.3,84.0,73.3,71.6,68.5,61.7,87,63,32,29.96,29.77,8,3,17,0.00
2014-3-10,74.9,74.6,74.3,70.9,70.7,70.5,88,88,87,29.88,29.88,0,0,14,0.00
2014-3-11,81.7,76.2,73.4,72.4,69.5,68.3,85,80,73,29.99,29.90,6,2,9,0.00
2014-3-12,95.4,84.4,75.0,74.7,71.0,68.3,85,66,43,29.96,29.77,11,4,19,0.00
2014-3-13,96.0,83.4,73.1,76.6,72.4,67.8,93,71,41,29.96,29.77,7,2,14,0.00
2014-3-14,100.0,86.9,76.6,76.2,71.8,63.7,88,64,31,29.94,29.76,11,3,18,0.00
2014-3-15,93.5,83.3,78.1,78.9,75.0,71.6,92,77,57,29.95,29.82,9,3,18,0.17
2014-3-16,92.6,87.7,79.9,78.9,76.8,74.4,84,71,61,29.96,29.82,9,4,16,0.00
2014-3-17,96.4,86.4,79.7,78.2,76.0,73.7,88,73,50,29.96,29.81,11,4,19,0.00
2014-3-18,97.3,86.0,78.5,79.3,75.6,73.4,88,73,48,29.96,29.81,9,3,15,0.00
2014-3-19,95.4,85.3,76.8,79.6,75.9,73.0,89,75,52,29.94,29.79,9,3,11,0.00
2014-3-20,95.4,85.2,77.0,81.5,77.7,74.8,94,79,57,29.91,29.75,8,2,11,0.00
2014-3-21,94.9,86.3,79.0,81.9,79.0,75.5,95,80,55,29.85,29.70,9,3,11,0.00
2014-3-22,96.6,86.5,78.6,79.1,76.6,73.7,94,74,48,29.87,29.71,7,2,14,0.00
2014-3-23,96.8,87.2,79.1,76.9,73.2,68.4,85,65,44,29.91,29.76,11,5,20,0.00
2014-3-24,99.0,87.2,77.9,76.5,73.6,70.0,88,67,40,29.91,29.74,12,4,19,0.00
2014-3-25,99.3,87.3,77.8,76.9,73.7,68.8,85,66,39,29.90,29.70,7,3,13,0.00
2014-3-26,98.5,86.8,77.4,79.3,75.2,71.6,90,70,44,29.88,29.72,9,2,15,0.00
2014-3-27,97.5,87.0,78.8,81.2,76.1,73.9,87,72,49,29.86,29.71,8,2,14,0.00
2014-3-28,97.1,87.2,77.5,81.2,76.4,72.5,91,72,47,29.90,29.71,9,2,12,0.00
2014-3-29,94.9,85.9,79.6,80.9,77.7,75.6,89,77,57,29.88,29.70,9,3,12,0.00
2014-3-30,93.2,85.1,78.2,80.7,78.6,76.7,96,82,63,29.86,29.69,8,2,12,0.01
2014-3-31,94.3,86.2,79.5,81.2,78.8,77.0,94,80,60,29.85,29.69,10,3,15,0.02
2014-4-1,89.0,84.8,77.4,81.4,79.7,76.2,97,85,75,29.86,29.71,6,2,9,0.00
2014-4-2,93.5,84.8,77.2,81.9,78.4,75.4,96,82,65,29.84,29.68,8,2,12,0.00
2014-4-3,90.7,85.3,80.5,82.7,80.0,78.7,95,85,70,29.87,29.74,9,2,14,0.02
2014-4-4,90.5,83.9,78.8,81.3,79.0,76.9,96,86,72,29.90,29.76,7,2,11,0.01
2014-4-5,83.7,77.7,76.6,80.5,76.6,75.4,98,96,89,29.94,29.83,2,0,3,0.01
2014-4-7,92.0,89.7,87.8,81.5,80.1,78.0,79,74,64,29.97,29.82,10,5,14,0.01
2014-4-8,90.4,82.9,77.0,81.3,77.1,74.1,94,84,67,29.97,29.80,9,2,13,0.00
2014-4-9,93.0,84.6,77.0,80.4,77.6,74.1,95,81,56,29.91,29.76,9,2,12,0.00
2014-4-10,92.1,83.0,75.3,81.0,76.8,73.7,97,83,60,29.93,29.76,11,2,12,0.28
2014-4-11,92.4,84.1,77.1,81.6,77.4,74.0,92,81,65,29.91,29.74,8,2,13,0.00
2014-4-12,91.2,84.5,76.5,80.6,77.9,75.0,96,82,66,29.90,29.73,8,2,11,0.00
2014-4-13,93.2,86.4,78.5,81.0,78.5,74.6,96,79,55,29.91,29.76,8,2,12,0.00
2014-4-14,93.2,84.2,78.0,81.1,77.4,74.2,92,81,64,29.90,29.78,8,2,11,0.00
2014-4-15,93.9,83.2,77.7,81.5,73.9,-99.9,96,79,53,29.89,29.72,8,-21,12,0.00
2014-4-16,92.1,84.0,75.6,80.5,76.9,73.6,95,80,64,29.85,29.69,7,2,11,0.00
2014-4-17,92.4,84.4,76.6,80.5,77.9,75.4,97,82,62,29.82,29.68,9,2,13,0.08
2014-4-18,91.6,84.5,78.2,82.4,79.3,77.0,97,85,67,29.85,29.70,8,2,9,0.02
2014-4-19,92.3,83.7,77.0,81.3,78.5,76.1,97,85,67,29.82,29.67,7,2,11,0.01
2014-4-20,92.2,85.0,78.4,81.5,79.2,77.3,97,84,63,29.81,29.67,9,3,14,0.01
2014-4-21,91.8,83.6,75.9,81.5,78.4,74.0,97,85,66,29.82,29.70,7,2,9,0.05
2014-4-22,92.0,85.4,79.2,83.6,80.7,78.3,97,87,70,29.86,29.72,8,2,11,0.00
2014-4-23,93.9,86.2,79.5,83.1,80.5,78.3,97,84,64,29.85,29.66,6,2,12,0.01
2014-4-24,92.7,84.2,78.7,82.0,79.3,77.5,97,86,63,29.82,29.69,7,2,10,0.01
2014-4-25,92.8,85.3,77.6,82.5,79.7,76.1,96,84,70,29.83,29.70,7,2,12,0.00
2014-4-26,92.9,84.5,77.3,81.5,78.8,76.2,97,84,66,29.84,29.67,5,1,8,0.02
2014-4-27,93.5,86.7,80.5,82.4,80.3,78.9,95,82,66,29.84,29.70,8,2,13,0.00
2014-4-28,92.4,85.7,79.4,83.2,80.4,77.9,96,85,67,29.86,29.69,5,2,8,0.01
2014-4-29,91.9,84.3,77.2,82.9,79.3,76.0,97,86,71,29.84,29.69,6,1,9,0.01
2014-4-30,82.4,80.3,79.2,79.4,78.1,77.2,94,93,89,29.82,29.75,1,0,2,0.00
2014-5-1,92.9,89.7,85.0,83.0,80.3,77.7,83,74,63,29.84,29.69,8,3,10,0.00
2014-5-2,92.2,84.1,79.3,82.2,79.5,77.1,94,87,72,29.84,29.74,6,1,9,0.00
2014-5-3,92.5,86.8,82.4,79.8,78.6,76.9,86,77,65,29.75,29.71,8,2,10,0.01
2014-5-4,95.0,83.4,77.4,80.4,77.8,75.8,96,84,61,29.82,29.68,14,1,16,0.00
2014-5-5,81.0,78.7,77.6,77.4,76.4,75.7,94,93,89,29.77,29.71,1,0,2,0.00
2014-5-8,93.8,86.4,79.4,82.3,80.1,77.5,94,82,68,29.83,29.71,8,2,12,0.00
2014-5-9,91.6,83.9,77.5,81.7,79.0,76.1,97,86,69,29.83,29.68,5,1,7,0.06
2014-5-10,94.5,85.9,79.7,82.9,79.9,76.9,95,83,62,29.84,29.70,9,2,14,0.00
2014-5-11,92.5,84.8,79.3,83.6,80.4,78.1,97,87,73,29.87,29.72,7,2,13,0.01
2014-5-12,92.8,85.1,79.9,82.8,80.3,76.9,94,86,70,29.86,29.75,10,2,16,0.04
2014-5-13,94.1,85.0,77.8,82.8,79.2,76.5,97,84,67,29.84,29.71,5,1,12,0.07
2014-5-14,93.2,86.1,79.0,83.7,80.3,77.1,95,83,68,29.81,29.67,10,2,13,0.25
2014-5-15,93.8,87.1,78.9,83.4,80.9,77.0,95,82,69,29.76,29.65,5,2,8,0.22
2014-5-16,90.1,87.7,84.3,82.9,81.3,80.1,88,82,76,29.78,29.67,9,2,14,0.09
2014-5-17,92.7,83.0,78.0,82.1,78.7,76.4,96,87,70,29.80,29.73,11,1,12,0.10
2014-5-18,87.7,82.4,78.1,80.1,77.6,75.4,95,86,73,29.87,29.74,6,1,6,0.02
2014-5-19,91.8,85.0,78.6,82.3,79.0,76.7,96,83,67,29.85,29.72,4,0,7,0.01
2014-5-20,92.4,85.5,79.3,82.1,79.9,77.2,94,84,71,29.85,29.72,6,2,10,0.00
2014-5-21,92.9,85.6,79.2,82.4,79.7,77.6,95,83,67,29.80,29.70,9,2,13,0.00
2014-5-22,91.0,83.3,79.1,82.7,79.0,76.9,94,87,72,29.77,29.69,10,2,15,0.06
2014-5-23,91.6,82.2,77.8,82.8,78.8,76.4,97,90,74,29.80,29.70,5,1,10,0.06
2014-5-24,95.7,85.7,78.8,82.4,78.5,75.1,97,81,53,29.82,29.68,5,1,7,0.02
2014-5-25,95.4,86.3,80.0,84.6,80.5,77.5,93,83,65,29.84,29.69,7,1,11,0.82
2014-5-26,93.3,86.4,79.6,82.9,80.7,78.4,96,84,68,29.84,29.72,5,1,6,0.49
2014-5-27,92.8,84.3,77.1,81.9,78.7,75.9,97,84,65,29.84,29.69,10,2,13,0.00
2014-5-28,95.0,86.3,79.4,82.5,80.0,77.8,96,82,62,29.84,29.71,5,1,7,0.00
2014-5-29,93.5,87.0,78.9,82.3,79.9,76.8,95,80,67,29.82,29.70,6,1,9,0.00
2014-5-30,95.6,84.4,79.9,82.2,79.6,77.7,95,86,63,29.76,29.67,8,1,12,0.33
2014-5-31,88.9,83.2,78.6,82.1,79.9,77.4,97,90,79,29.76,29.64,8,2,12,0.02
2014-6-1,90.2,82.7,78.9,82.6,79.1,77.0,96,89,75,29.79,29.70,9,1,13,0.09
2014-6-2,92.6,83.4,76.0,82.9,78.8,74.8,97,87,72,29.78,29.66,7,1,11,0.00
2014-6-3,93.0,85.9,79.9,82.5,80.3,78.0,95,84,70,29.72,29.63,8,2,13,0.00
2014-6-4,89.5,81.7,77.5,82.1,78.9,75.6,96,91,79,29.74,29.65,8,1,11,1.48
2014-6-5,91.1,81.5,76.7,82.9,78.7,74.6,97,91,76,29.73,29.64,9,1,11,1.46
2014-6-6,89.4,82.6,77.1,81.8,78.9,76.2,97,89,75,29.71,29.63,7,1,10,0.04
2014-6-7,92.4,85.3,79.5,84.1,80.6,78.3,97,86,73,29.70,29.59,9,2,19,0.01
2014-6-8,90.7,84.5,79.8,83.8,81.2,78.6,97,90,79,29.71,29.62,6,1,11,0.03
2014-6-9,95.5,88.2,81.3,83.0,80.9,78.6,95,80,60,29.72,29.61,6,1,11,0.00
2014-6-10,93.5,86.9,79.7,81.8,78.9,77.0,93,78,63,29.73,29.63,7,2,11,0.00
2014-6-11,91.9,85.4,82.5,83.2,80.6,78.6,93,86,73,29.72,29.61,6,1,9,0.34
2014-6-12,85.8,81.6,78.0,81.1,79.1,76.8,96,92,83,29.73,29.63,7,1,10,0.76
2014-6-13,89.7,85.9,79.7,80.0,78.0,75.4,94,78,69,29.68,29.61,9,5,16,0.13
2014-6-14,89.0,83.6,76.0,80.5,77.6,74.2,95,83,70,29.78,29.65,7,3,12,0.44
2014-6-15,90.4,85.1,80.9,81.1,78.9,76.7,91,82,68,29.78,29.67,9,3,15,0.00
2014-6-16,87.5,79.1,75.9,80.7,74.3,-99.9,96,89,79,29.76,29.67,9,-13,11,0.67
2014-6-17,87.6,80.9,75.0,80.7,77.0,73.5,96,88,75,29.76,29.68,6,2,9,0.00
2014-6-18,89.5,85.0,79.9,80.9,79.0,75.9,93,82,72,29.78,29.71,8,2,12,0.00
2014-6-19,92.2,85.4,79.4,79.8,77.5,75.5,91,78,63,29.79,29.69,8,2,12,0.00
2014-6-20,91.8,85.1,80.8,81.2,78.7,77.0,91,82,67,29.81,29.72,8,2,11,0.00
2014-6-21,89.6,82.4,79.2,81.4,77.7,76.1,93,86,73,29.83,29.77,7,1,12,0.07
2014-6-22,87.2,82.2,78.5,80.2,78.0,75.8,95,87,76,29.87,29.78,8,1,12,0.00
2014-6-23,86.1,81.0,75.5,80.8,77.5,73.5,95,89,82,29.85,29.71,6,1,9,0.80
2014-6-24,89.3,66.4,57.2,79.1,63.5,55.4,96,91,70,29.78,28.33,10,2,13,0.03
2014-6-25,88.8,79.2,69.4,80.3,70.1,-99.9,94,80,49,29.81,28.17,10,-28,13,0.01
2014-6-26,88.7,82.4,75.7,79.5,76.4,73.9,96,83,71,29.87,29.77,4,1,6,0.00
2014-6-27,91.8,80.1,75.6,79.4,70.3,-99.9,96,79,61,29.87,29.77,7,-34,12,0.00
2014-6-28,91.3,85.1,79.4,80.3,77.9,76.5,91,80,65,29.84,29.73,5,2,11,0.00
2014-6-29,84.4,79.4,75.3,78.7,76.0,74.1,96,90,83,29.81,29.67,6,1,8,1.22
2014-6-30,89.6,80.6,75.2,80.1,77.1,74.3,97,89,71,29.72,29.65,7,1,12,0.41
2014-7-1,85.3,78.8,74.6,78.6,75.6,73.1,96,90,77,29.82,29.71,8,1,13,0.24
2014-7-2,89.1,81.7,74.4,79.9,76.6,73.2,97,85,66,29.77,29.66,5,1,10,0.01
2014-7-3,89.3,83.9,78.0,79.6,77.4,75.4,94,81,68,29.70,29.57,7,2,10,0.00
2014-7-4,88.9,82.7,79.1,80.2,77.6,75.4,91,85,72,29.66,29.57,11,2,13,0.24
2014-7-5,89.9,83.1,77.7,80.0,77.4,75.9,96,84,66,29.69,29.60,7,2,12,0.17
2014-7-6,90.7,83.8,76.5,80.1,77.2,75.0,96,81,65,29.72,29.61,7,2,10,0.00
2014-7-7,86.3,81.2,77.3,79.0,76.7,74.5,93,86,75,29.74,29.60,6,1,9,0.21
2014-7-8,88.0,82.6,78.3,79.1,76.4,72.2,93,82,73,29.68,29.58,8,3,12,0.48
2014-7-9,90.3,85.3,82.6,79.1,77.2,75.5,85,77,67,29.68,29.57,7,3,14,0.00
2014-7-10,90.6,85.8,82.1,78.9,77.0,75.1,84,75,66,29.70,29.61,8,3,13,0.00
2014-7-11,86.5,83.5,80.1,80.2,77.4,75.2,88,82,75,29.72,29.61,7,2,10,0.15
2014-7-12,87.1,82.8,81.2,80.2,77.4,75.6,90,84,78,29.70,29.58,6,2,11,0.33
2014-7-13,89.8,85.1,82.5,79.9,77.7,75.6,84,79,70,29.67,29.58,9,3,17,0.02
2014-7-14,86.4,81.9,79.5,80.2,78.0,75.7,93,88,81,29.70,29.63,6,1,12,0.05
2014-7-15,79.4,76.2,74.6,76.4,74.7,73.4,97,95,90,29.77,29.67,6,1,7,1.24
2014-7-16,87.8,80.0,74.0,79.7,75.9,72.9,97,88,75,29.75,29.66,7,1,9,0.05
2014-7-17,87.2,80.6,74.9,80.6,76.9,73.7,97,89,78,29.72,29.60,6,1,9,0.06
2014-7-18,90.9,84.2,78.5,81.3,78.2,75.1,93,83,64,29.69,29.60,8,2,12,0.00
2014-7-19,88.8,83.9,79.2,79.6,77.8,76.5,93,83,71,29.74,29.64,6,2,9,0.00
2014-7-20,91.0,79.2,75.9,79.4,72.9,74.2,95,78,61,29.80,29.61,7,1,7,0.00
2014-7-21,89.2,83.2,77.5,80.6,77.6,74.8,92,84,72,29.85,29.75,12,2,15,0.13
2014-7-22,87.8,82.7,80.1,79.5,77.5,75.2,90,85,75,29.84,29.75,17,2,27,0.03
2014-7-23,90.7,85.1,80.4,79.0,77.2,75.9,90,78,64,29.85,29.74,15,3,16,0.00
2014-7-24,88.0,79.7,76.5,79.2,75.9,73.8,95,88,73,29.85,29.76,14,2,19,0.11
2014-7-25,78.4,75.7,74.1,76.3,74.1,72.7,97,95,92,29.86,29.77,10,1,14,0.77
2014-7-26,88.3,79.5,73.6,80.8,76.1,72.7,98,90,75,29.86,29.78,22,1,22,0.10
2014-7-27,87.4,79.2,72.9,80.4,75.7,72.0,98,90,77,29.92,29.79,10,1,12,0.06
2014-7-28,90.0,84.2,78.6,79.3,77.3,76.1,93,81,67,29.87,29.74,17,2,17,0.00
2014-7-29,90.0,82.6,79.3,80.2,77.9,75.9,94,86,71,29.83,29.73,19,1,19,0.80
2014-7-30,89.8,83.5,79.0,80.4,77.9,75.6,93,84,70,29.84,29.75,13,2,15,0.02
2014-7-31,86.5,83.3,80.8,80.2,78.0,76.5,90,84,78,29.85,29.75,10,1,10,0.10
2014-8-1,91.0,84.1,78.1,79.0,76.6,74.3,92,79,60,29.84,29.74,12,2,17,0.00
2014-8-2,90.5,84.0,78.3,80.1,76.8,74.5,93,80,62,29.82,29.75,12,1,16,0.00
2014-8-3,90.9,84.1,78.3,79.2,76.6,74.8,92,79,62,29.83,29.72,12,2,13,0.00
2014-8-4,88.3,82.0,75.7,79.9,76.9,73.0,95,85,72,29.82,29.72,15,2,18,0.38
2014-8-5,88.5,81.0,77.0,79.9,77.2,75.2,96,89,73,29.83,29.74,12,1,12,0.48
2014-8-6,85.3,79.3,74.3,78.8,75.9,73.0,97,90,76,29.85,29.77,17,3,23,1.50
2014-8-7,86.4,79.3,74.5,78.8,76.1,72.3,96,90,77,29.87,29.77,19,1,27,1.35
2014-8-8,88.9,80.3,74.5,79.9,75.5,72.5,97,86,65,29.86,29.78,13,1,18,0.06
2014-8-9,89.2,79.4,72.1,80.6,75.0,70.7,97,87,69,29.88,29.80,8,1,11,0.01
2014-8-10,90.1,82.5,74.7,80.1,76.8,73.2,96,84,67,29.90,29.77,10,1,12,0.00
2014-8-11,88.0,82.4,77.0,79.0,77.1,75.0,95,85,72,29.89,29.77,12,2,13,0.06
2014-8-12,90.5,82.2,75.4,79.2,76.2,73.8,96,83,62,29.85,29.75,12,2,16,0.01
2014-8-13,91.2,83.2,75.7,79.3,76.4,73.9,96,81,62,29.86,29.76,15,1,15,0.00
2014-8-14,89.4,83.0,76.6,79.3,77.2,74.8,95,83,68,29.88,29.68,10,2,12,0.00
2014-8-15,84.7,79.4,73.9,78.3,75.9,72.7,97,89,78,29.91,29.81,12,2,14,1.08
2014-8-16,84.2,77.7,73.2,77.9,74.7,72.0,97,91,79,29.92,29.78,15,1,18,0.13
2014-8-17,87.3,80.7,74.8,78.6,76.1,73.6,97,87,70,29.85,29.75,15,3,15,0.21
2014-8-18,87.6,80.9,76.6,79.3,76.7,74.1,95,88,74,29.89,29.78,10,1,14,0.20
2014-8-19,88.3,81.6,75.7,79.5,76.9,74.1,96,86,74,29.92,29.77,10,2,11,0.28
2014-8-20,88.0,80.4,75.9,80.1,76.3,74.3,96,88,74,29.88,29.77,12,2,12,0.00
2014-8-21,88.2,80.7,74.3,79.3,75.7,73.0,96,86,68,29.86,29.72,12,2,12,0.01
2014-8-22,89.2,81.6,74.5,80.2,76.8,73.2,97,86,71,29.85,29.71,10,1,12,0.04
2014-8-23,89.8,80.8,75.0,80.6,77.0,74.1,97,89,71,29.87,29.73,10,1,12,0.12
2014-8-24,88.7,80.2,74.5,79.5,76.1,73.6,97,88,70,29.86,29.74,13,1,15,0.03
2014-8-25,87.8,79.7,73.0,79.7,75.6,71.8,97,88,74,29.85,29.74,17,2,21,0.01
2014-8-26,86.5,78.9,74.7,79.3,75.7,73.4,97,90,75,29.85,29.74,10,1,11,0.24
2014-8-27,83.1,76.6,74.1,78.8,74.3,71.4,97,93,84,29.84,29.75,10,1,16,1.20
2014-8-28,87.3,78.0,73.2,79.0,74.2,71.4,96,89,74,29.86,29.76,15,1,19,0.28
2014-8-29,87.4,78.6,72.3,80.1,75.3,71.4,98,90,76,29.84,29.75,14,2,17,0.04
2014-8-30,86.4,80.6,75.7,79.0,76.7,74.5,96,88,75,29.85,29.76,4,0,5,0.00
2014-8-31,89.1,81.8,75.9,79.9,76.9,74.7,97,86,67,29.83,29.74,13,2,14,0.00
2014-9-1,89.2,82.8,77.5,79.5,77.2,75.7,96,84,70,29.83,29.72,12,2,13,0.00
2014-9-2,87.8,82.0,78.1,79.3,76.5,72.0,90,84,70,29.87,29.77,10,1,12,0.02
2014-9-3,91.8,82.7,75.4,79.7,76.5,73.8,96,82,63,29.89,29.77,10,2,13,0.00
2014-9-4,92.1,83.5,75.0,78.6,76.1,73.4,96,80,61,29.88,29.75,13,1,13,0.00
2014-9-5,90.0,83.3,77.5,78.8,76.2,74.1,92,80,64,29.86,29.74,8,1,13,0.00
2014-9-6,86.7,80.3,74.7,80.1,75.8,70.9,94,86,74,29.87,29.77,12,1,12,0.20
2014-9-7,82.9,78.7,74.8,76.8,74.0,71.1,93,86,79,29.92,29.80,17,2,19,0.26
2014-9-8,86.5,79.2,73.9,77.7,74.7,72.0,97,87,72,29.92,29.77,7,1,10,0.39
2014-9-9,84.7,76.9,72.9,78.1,74.5,71.4,96,92,79,29.92,29.77,13,2,18,1.39
2014-9-10,85.5,77.9,72.0,77.7,74.3,71.1,97,89,73,29.90,29.77,8,1,14,0.52
2014-9-11,91.0,86.8,82.0,79.0,77.4,75.7,82,74,66,29.83,29.77,8,1,11,0.00
2014-9-12,89.2,81.8,77.0,78.6,76.7,74.8,94,85,67,29.90,29.77,12,1,16,0.06
2014-9-13,89.1,81.7,76.8,79.3,76.9,75.0,95,86,72,29.86,29.75,16,2,19,0.31
2014-9-14,80.8,77.8,75.4,77.2,75.5,73.8,96,93,87,29.86,29.74,10,1,15,0.52
2014-9-15,77.4,75.2,73.8,75.9,74.0,72.3,97,96,92,29.84,29.71,8,2,12,1.14
2014-9-16,81.9,76.9,73.2,77.5,74.3,71.4,96,92,84,29.83,29.67,20,2,22,1.06
2014-9-17,85.8,80.2,76.5,79.7,77.1,75.6,97,91,78,29.83,29.70,12,2,15,0.04
2014-9-18,92.5,82.7,74.5,79.5,76.7,73.6,97,84,63,29.87,29.75,8,1,12,0.01
2014-9-19,89.2,81.6,75.7,81.0,77.5,74.5,97,88,73,29.91,29.74,8,1,11,0.08
2014-9-20,90.3,82.0,74.7,79.3,76.4,73.2,97,84,68,29.88,29.74,8,1,11,0.00
2014-9-21,88.5,81.6,76.5,79.5,77.0,74.3,96,86,72,29.91,29.80,12,2,16,0.12
2014-9-22,87.3,81.3,75.7,79.3,77.1,74.5,97,88,73,29.89,29.78,12,2,14,0.00
2014-9-23,89.8,82.3,75.2,80.8,76.8,73.9,96,84,71,29.87,29.73,12,2,13,0.00
2014-9-24,87.8,79.8,76.5,78.3,76.1,74.8,96,89,69,29.90,29.77,13,1,13,0.02
2014-9-25,90.0,80.3,75.4,79.2,76.1,74.3,97,88,62,29.91,29.79,10,1,11,0.04
2014-9-26,87.3,80.5,74.3,77.5,75.4,72.9,96,85,66,29.97,29.81,10,2,12,0.57
2014-9-27,88.9,81.3,74.8,78.6,75.4,73.2,96,83,63,29.94,29.79,10,2,11,0.00
2014-9-28,90.0,82.6,75.4,79.3,76.6,73.9,96,83,64,29.90,29.76,10,2,13,0.00
2014-9-29,90.5,83.7,76.5,80.6,77.8,74.8,95,83,69,29.88,29.72,10,2,15,0.00
2014-9-30,88.2,82.4,75.9,79.9,77.4,74.3,97,85,71,29.90,29.75,10,2,15,0.41
2014-10-1,89.2,80.8,75.6,80.1,77.3,74.3,97,89,69,29.88,29.75,10,1,11,0.02
2014-10-2,89.8,80.6,74.7,79.9,76.6,73.4,97,88,68,29.88,29.75,8,1,12,0.10
2014-10-3,86.0,77.3,74.5,80.1,75.5,73.6,98,94,81,29.86,29.76,13,1,16,0.36
2014-10-4,82.6,76.9,74.5,76.8,74.6,73.2,97,93,81,29.89,29.79,7,1,10,0.46
2014-10-5,79.5,75.3,73.8,77.7,74.1,72.7,97,96,91,29.88,29.73,14,1,16,2.09
2014-10-6,84.8,78.7,73.9,78.0,75.2,71.1,97,89,79,29.85,29.60,20,4,29,0.34
2014-10-7,82.2,76.2,73.6,78.3,74.6,72.3,98,95,84,29.85,29.71,22,2,24,1.29
2014-10-8,84.6,77.3,73.9,79.3,75.2,72.7,98,94,82,29.86,29.75,12,1,14,0.54
2014-10-9,91.2,81.5,73.6,79.9,75.5,72.7,97,84,64,29.88,29.75,8,1,10,0.00
2014-10-10,91.8,82.6,75.0,80.2,75.9,73.4,96,82,59,29.87,29.72,8,1,12,0.00
2014-10-11,94.1,83.8,73.6,77.5,74.7,69.8,96,76,49,29.88,29.73,10,1,13,0.00
2014-10-12,89.6,82.1,75.7,78.4,75.9,72.9,93,82,65,29.91,29.78,7,0,10,0.09
2014-10-13,89.4,79.3,73.2,80.1,75.2,72.3,97,88,68,29.92,29.76,20,1,23,0.87
2014-10-14,88.0,78.5,73.6,78.8,75.0,72.7,98,90,70,29.90,29.78,15,2,17,0.01
2014-10-15,84.7,77.7,73.2,77.5,74.6,72.0,97,90,78,29.90,29.79,12,1,14,0.00
2014-10-16,91.6,81.8,74.8,78.8,75.9,73.0,95,83,64,29.90,29.76,14,2,19,0.00
2014-10-17,91.2,81.2,75.6,80.4,76.3,73.9,96,86,65,29.88,29.74,13,1,14,0.23
2014-10-18,88.5,80.3,74.5,79.9,76.1,73.6,98,88,72,29.87,29.72,10,1,14,0.02
2014-10-19,86.4,76.8,73.2,78.8,74.5,72.3,97,93,73,29.87,29.73,13,1,14,1.01
2014-10-20,87.8,78.9,72.5,78.3,75.0,71.8,98,88,69,29.90,29.76,10,1,11,0.01
2014-10-21,90.3,80.1,73.9,79.7,75.7,72.7,97,87,67,29.95,29.80,16,1,21,0.39
2014-10-22,89.4,81.2,74.8,80.2,76.8,74.3,98,87,68,29.95,29.79,10,1,11,0.01
2014-10-23,85.3,80.3,76.8,79.9,77.5,76.3,99,91,78,29.93,29.79,6,0,9,0.01
2014-10-24,90.0,81.6,76.5,79.3,77.3,75.4,98,88,66,29.89,29.75,14,1,16,0.24
2014-10-25,88.3,81.3,74.8,79.3,76.9,74.3,99,87,69,29.90,29.76,12,2,13,0.00
2014-10-26,90.0,82.3,76.8,79.9,77.5,75.9,98,86,66,29.92,29.80,10,1,11,0.00
2014-10-27,90.3,81.2,75.9,79.7,77.1,74.8,97,88,66,29.91,29.77,12,1,14,0.33
2014-10-28,88.0,81.2,75.6,79.3,77.1,75.0,99,88,73,29.88,29.74,12,1,13,0.00
2014-10-29,89.4,82.7,76.5,79.3,76.5,74.8,97,83,64,29.89,29.74,10,2,12,0.00
2014-10-30,90.3,82.1,76.3,79.7,77.2,74.8,98,86,69,29.87,29.72,10,1,14,0.23
2014-10-31,90.0,82.6,75.9,79.5,77.1,74.8,98,84,65,29.85,29.70,12,2,15,0.03
2014-11-1,86.7,80.6,76.3,80.2,77.4,75.7,98,90,75,29.84,29.70,5,0,7,0.06
2014-11-2,89.1,81.2,75.7,79.7,77.1,74.8,98,88,71,29.87,29.71,12,2,13,0.01
2014-11-3,86.4,80.4,76.5,79.0,76.6,74.5,96,89,76,29.90,29.74,15,2,16,0.24
2014-11-4,87.6,80.8,75.7,79.0,76.3,73.8,97,87,72,29.94,29.78,8,1,12,0.46
2014-11-5,90.3,82.9,76.1,79.2,75.8,72.3,89,80,61,29.95,29.79,10,1,10,0.00
2014-11-6,90.7,83.5,76.6,79.5,76.4,72.5,88,80,67,29.93,29.78,13,1,14,0.00
2014-11-7,90.0,79.7,74.5,79.0,73.8,68.9,87,83,69,29.90,29.79,10,1,10,0.34
2014-11-8,80.4,77.7,75.9,69.3,66.0,58.8,79,68,54,29.91,29.78,8,1,13,0.59
2014-11-9,86.5,79.8,76.6,77.0,62.3,52.9,75,56,43,29.88,29.75,14,3,17,0.10
2014-11-10,89.6,80.8,76.8,79.3,60.5,48.6,74,52,36,29.88,29.76,7,1,10,0.06
2014-11-11,91.9,83.7,77.4,78.6,65.9,50.4,73,56,38,29.89,29.74,13,2,15,0.00
2014-11-12,91.2,82.7,75.7,79.3,66.9,48.4,74,60,36,29.90,29.74,10,1,10,0.46
2014-11-13,90.3,80.5,74.7,77.9,56.5,36.1,73,46,25,29.90,29.78,16,1,16,2.17
2014-11-14,90.7,79.8,74.3,78.3,47.8,19.8,71,39,11,29.91,29.76,15,1,19,0.01
2014-11-15,82.6,78.0,74.8,66.7,44.2,21.0,62,34,13,29.89,29.76,15,1,20,0.14
2014-11-16,91.2,81.8,73.8,77.7,53.0,16.2,72,45,10,29.85,29.71,13,2,15,0.00
2014-11-17,89.8,81.6,74.5,77.0,56.7,22.6,72,48,14,29.87,29.74,17,2,18,0.02
2014-11-18,88.5,79.6,75.0,76.8,56.8,36.0,72,48,23,29.91,29.79,24,1,32,0.00
2014-11-19,88.2,79.5,75.7,76.6,46.8,25.3,73,37,15,29.89,29.78,10,1,18,0.13
2014-11-20,82.8,78.3,75.6,76.5,43.6,16.3,88,40,10,29.89,29.77,10,1,11,0.02
2014-11-21,88.9,79.9,75.4,78.6,75.2,73.0,95,86,67,29.86,29.73,15,1,18,0.57
2014-11-22,91.2,80.3,74.8,79.0,74.8,72.7,96,84,58,29.87,29.72,10,1,12,0.70
2014-11-23,88.3,79.4,74.8,79.0,76.0,73.9,97,90,70,29.87,29.74,8,1,12,0.31
2014-11-24,89.4,80.3,74.1,80.4,75.7,73.2,98,87,65,29.87,29.74,17,1,17,0.05
2014-11-25,89.2,81.0,74.8,78.3,75.8,73.6,97,85,65,29.85,29.70,10,1,18,0.09
2014-11-26,88.5,80.5,75.0,79.2,75.9,73.0,97,87,66,29.82,29.70,10,1,15,0.11
2014-11-27,90.0,79.6,73.8,78.1,74.9,72.1,98,86,60,29.84,29.72,10,1,14,0.11
2014-11-28,89.2,80.5,73.6,79.0,75.4,72.7,98,85,68,29.86,29.72,10,1,11,0.06
2014-11-29,90.7,81.8,74.1,79.0,75.8,72.9,97,83,63,29.86,29.71,7,1,9,0.00
2014-11-30,90.7,82.9,75.7,77.7,75.6,72.0,96,80,57,29.84,29.70,8,1,10,0.00
2014-12-1,91.6,83.0,76.3,79.7,76.5,73.6,96,82,62,29.83,29.67,12,1,12,0.18
2014-12-2,90.7,82.0,74.5,77.7,75.4,73.2,97,82,62,29.84,29.71,8,1,11,0.01
2014-12-3,88.7,80.5,73.2,79.2,75.4,72.0,98,86,63,29.88,29.71,8,1,10,0.10
2014-12-4,90.9,80.5,75.9,78.6,76.2,74.3,97,88,61,29.90,29.76,12,1,15,0.30
2014-12-5,90.9,81.2,75.6,79.9,76.1,73.2,97,86,60,29.91,29.77,10,1,14,0.50
2014-12-6,87.1,79.1,74.5,78.1,75.6,73.6,98,90,70,29.93,29.78,7,0,9,0.03
2014-12-7,91.2,82.1,75.0,78.8,75.9,73.4,97,83,58,29.89,29.72,10,1,11,0.15
2014-12-8,87.6,80.1,75.4,78.3,75.7,73.0,97,87,68,29.91,29.79,14,1,18,0.22
2014-12-9,90.9,81.0,73.2,76.6,74.1,71.4,95,81,60,29.92,29.79,15,2,16,0.18
2014-12-10,90.3,80.8,73.2,77.4,74.3,71.8,96,82,60,29.91,29.76,10,1,12,0.02
2014-12-11,91.0,82.3,73.8,74.5,72.3,69.1,94,74,50,29.90,29.75,13,2,14,0.00
2014-12-12,91.0,82.1,72.7,74.5,72.3,70.5,94,74,52,29.90,29.76,14,2,17,0.00
2014-12-13,88.3,82.0,74.1,76.5,74.3,71.8,94,78,66,29.90,29.79,14,2,15,0.00
2014-12-14,78.3,77.0,75.4,75.0,73.8,71.8,94,90,83,29.95,29.82,13,3,15,0.13
2014-12-15,89.1,80.4,72.9,77.7,74.3,71.1,97,83,62,29.89,29.78,10,2,14,0.01
2014-12-16,90.5,81.8,73.8,78.1,74.5,72.1,95,80,56,29.89,29.75,12,1,13,0.00
2014-12-17,87.4,81.0,74.8,76.6,74.0,72.5,94,80,65,29.87,29.76,15,2,20,0.00
2014-12-18,81.9,77.9,74.8,75.0,73.3,71.8,93,86,79,29.92,29.81,13,2,14,0.04
2014-12-19,89.1,79.9,73.4,76.1,73.1,71.4,95,80,63,29.94,29.80,14,2,16,0.00
2014-12-20,88.0,79.4,72.7,75.6,73.2,70.5,94,82,65,29.88,29.75,17,2,19,0.04
2014-12-21,88.7,79.2,74.1,76.8,74.2,72.3,96,86,65,29.85,29.71,10,1,18,0.17
2014-12-22,82.0,77.7,74.7,77.2,74.7,72.9,96,91,82,29.84,29.74,8,1,12,0.09
2014-12-23,82.0,78.0,73.9,73.8,72.2,70.9,93,83,73,29.85,29.75,14,2,17,0.00
2014-12-24,84.0,78.9,75.4,75.4,73.3,71.1,91,83,73,29.88,29.78,17,2,17,0.00
2014-12-25,85.6,78.7,74.7,77.7,74.8,72.1,96,88,73,29.86,29.72,10,1,11,0.07
2014-12-26,85.6,78.4,73.6,77.5,74.9,72.3,97,89,73,29.85,29.73,13,1,16,0.28
2014-12-27,90.0,81.6,75.9,77.4,75.0,73.2,93,81,62,29.85,29.75,16,3,23,0.01
2014-12-28,89.8,80.8,75.9,77.0,73.7,71.2,92,80,63,29.90,29.76,16,2,28,0.12
2014-12-29,84.9,76.5,72.3,76.5,73.0,69.8,96,89,73,29.90,29.80,21,1,27,0.48
2014-12-30,87.6,80.8,73.9,76.3,73.3,71.2,93,79,60,29.88,29.75,14,2,15,0.01
2014-12-31,88.5,79.7,73.2,74.7,72.7,70.9,96,80,58,29.90,29.78,17,3,21,0.06
2015-1-1,88.5,80.4,72.9,74.8,71.7,70.0,92,76,57,29.92,29.78,15,3,18,0.00
2015-1-2,88.5,80.0,71.2,73.0,70.7,68.7,94,75,57,29.94,29.83,16,2,16,0.00